createdAt,value
2022-12-15T00:00:56.880Z,10.98
2022-12-15T00:03:47.204Z,11.57
2022-12-15T00:06:37.458Z,9.15
2022-12-15T00:09:30.855Z,9.23
2022-12-15T00:12:21.740Z,9.30
2022-12-15T00:15:11.987Z,11.88
2022-12-15T00:18:03.666Z,8.38
2022-12-15T00:20:54.560Z,8.48
2022-12-15T00:23:44.569Z,9.85
2022-12-15T00:26:35.437Z,8.52
2022-12-15T00:29:27.437Z,9.88
2022-12-15T00:35:09.119Z,8.57
2022-12-15T00:37:59.679Z,9.85
2022-12-15T00:40:32.696Z,8.43
2022-12-15T00:43:05.887Z,10.30
2022-12-15T00:45:56.053Z,10.52
2022-12-15T00:48:29.190Z,8.68
2022-12-15T00:51:02.559Z,9.95
2022-12-15T00:53:53.240Z,8.70
2022-12-15T00:56:43.522Z,9.57
2022-12-15T00:59:34.994Z,11.82
2022-12-15T01:02:25.594Z,10.23
2022-12-15T01:05:16.014Z,10.35
2022-12-15T01:08:07.423Z,9.45
2022-12-15T01:10:57.852Z,9.93
2022-12-15T01:13:49.804Z,8.00
2022-12-15T01:16:40.768Z,7.97
2022-12-15T01:19:31.628Z,6.53
2022-12-15T01:22:04.746Z,8.15
2022-12-15T01:24:39.456Z,7.28
2022-12-15T01:27:12.365Z,7.38
2022-12-15T01:29:45.515Z,7.43
2022-12-15T01:32:18.523Z,7.90
2022-12-15T01:34:51.870Z,10.25
2022-12-15T01:37:24.814Z,8.63
2022-12-15T01:40:16.463Z,8.93
2022-12-15T01:42:49.530Z,8.88
2022-12-15T01:45:48.748Z,9.60
2022-12-15T01:48:28.090Z,8.05
2022-12-15T01:51:07.232Z,9.15
2022-12-15T01:53:44.460Z,8.45
2022-12-15T01:56:19.570Z,5.60
2022-12-15T01:58:56.341Z,5.88
2022-12-15T02:01:29.736Z,7.82
2022-12-15T02:04:03.599Z,10.20
2022-12-15T02:06:37.757Z,5.22
2022-12-15T02:09:10.964Z,4.95
2022-12-15T02:12:01.009Z,5.95
2022-12-15T02:14:46.840Z,5.00
2022-12-15T02:17:34.200Z,14.02
2022-12-15T02:20:42.836Z,9.40
2022-12-15T02:23:50.627Z,8.85
2022-12-15T02:27:03.527Z,7.15
2022-12-15T02:30:07.984Z,13.88
2022-12-15T02:32:49.309Z,11.27
2022-12-15T02:35:26.050Z,11.88
2022-12-15T02:37:59.415Z,6.45
2022-12-15T02:40:32.351Z,4.78
2022-12-15T02:43:07.967Z,6.65
2022-12-15T02:45:58.389Z,5.68
2022-12-15T02:48:38.981Z,5.93
2022-12-15T02:51:26.694Z,5.28
2022-12-15T02:54:26.063Z,5.13
2022-12-15T02:57:07.107Z,6.75
2022-12-15T02:59:46.870Z,12.82
2022-12-15T03:02:21.454Z,12.30
2022-12-15T03:04:55.363Z,16.88
2022-12-15T03:07:29.081Z,16.88
2022-12-15T03:10:04.225Z,9.55
2022-12-15T03:12:37.625Z,17.90
2022-12-15T03:15:11.316Z,19.58
2022-12-15T03:17:45.824Z,23.30
2022-12-15T03:20:19.038Z,10.77
2022-12-15T03:22:52.229Z,10.68
2022-12-15T03:25:25.123Z,16.63
2022-12-15T03:27:58.222Z,7.35
2022-12-15T03:30:31.873Z,11.77
2022-12-15T03:33:06.370Z,6.20
2022-12-15T03:35:39.218Z,11.40
2022-12-15T03:38:12.175Z,10.35
2022-12-15T03:40:45.233Z,11.45
2022-12-15T03:43:18.270Z,13.93
2022-12-15T03:45:51.230Z,5.50
2022-12-15T03:48:25.508Z,11.77
2022-12-15T03:50:59.238Z,13.18
2022-12-15T03:53:32.684Z,6.50
2022-12-15T03:56:06.067Z,15.40
2022-12-15T03:58:39.212Z,13.85
2022-12-15T04:01:14.140Z,8.10
2022-12-15T04:03:48.935Z,13.57
2022-12-15T04:06:22.008Z,7.00
2022-12-15T04:08:56.304Z,8.82
2022-12-15T04:11:29.334Z,12.45
2022-12-15T04:14:02.869Z,15.15
2022-12-15T04:16:35.761Z,9.23
2022-12-15T04:19:27.386Z,15.40
2022-12-15T04:22:02.680Z,8.63
2022-12-15T04:24:53.302Z,13.02
2022-12-15T04:27:43.564Z,18.83
2022-12-15T04:30:36.939Z,13.73
2022-12-15T04:33:30.824Z,11.75
2022-12-15T04:36:23.972Z,12.90
2022-12-15T04:39:14.048Z,6.75
2022-12-15T04:42:05.963Z,9.63
2022-12-15T04:44:56.632Z,7.78
2022-12-15T04:47:47.949Z,7.18
2022-12-15T04:50:38.205Z,9.15
2022-12-15T04:53:33.884Z,9.73
2022-12-15T04:56:29.279Z,12.52
2022-12-15T04:59:20.391Z,11.80
2022-12-15T05:02:10.773Z,14.10
2022-12-15T05:05:01.500Z,21.63
2022-12-15T05:07:52.003Z,16.65
2022-12-15T05:10:43.502Z,7.88
2022-12-15T05:13:34.699Z,13.60
2022-12-15T05:16:25.896Z,18.02
2022-12-15T05:19:16.171Z,12.60
2022-12-15T05:22:06.804Z,6.30
2022-12-15T05:24:57.418Z,6.65
2022-12-15T05:27:49.712Z,22.17
2022-12-15T05:30:40.096Z,12.75
2022-12-15T05:33:13.230Z,11.73
2022-12-15T05:35:46.267Z,6.15
2022-12-15T05:38:19.515Z,6.57
2022-12-15T05:40:52.724Z,7.45
2022-12-15T05:43:27.463Z,10.13
2022-12-15T05:46:05.723Z,8.57
2022-12-15T05:48:38.903Z,5.57
2022-12-15T05:51:13.571Z,6.40
2022-12-15T05:53:46.447Z,4.53
2022-12-15T05:56:19.570Z,4.53
2022-12-15T05:58:54.490Z,5.00
2022-12-15T06:01:28.371Z,5.47
2022-12-15T06:04:01.611Z,5.35
2022-12-15T06:06:34.768Z,12.85
2022-12-15T06:09:08.895Z,7.35
2022-12-15T06:11:41.899Z,8.90
2022-12-15T06:14:16.391Z,7.45
2022-12-15T06:16:51.193Z,5.30
2022-12-15T06:19:24.791Z,5.82
2022-12-15T06:21:58.005Z,5.93
2022-12-15T06:24:31.118Z,5.20
2022-12-15T06:27:04.030Z,6.47
2022-12-15T06:29:38.568Z,5.03
2022-12-15T06:32:12.290Z,7.38
2022-12-15T06:34:45.570Z,5.50
2022-12-15T06:37:18.632Z,4.72
2022-12-15T06:39:51.674Z,5.00
2022-12-15T06:42:24.731Z,5.45
2022-12-15T06:44:59.114Z,5.43
2022-12-15T06:47:32.068Z,6.00
2022-12-15T06:50:05.249Z,5.60
2022-12-15T06:52:38.628Z,5.40
2022-12-15T06:55:11.918Z,7.38
2022-12-15T06:57:45.033Z,5.65
2022-12-15T07:00:38.220Z,4.97
2022-12-15T07:03:15.638Z,6.55
2022-12-15T07:05:48.841Z,4.70
2022-12-15T07:08:25.639Z,5.40
2022-12-15T07:11:04.226Z,5.70
2022-12-15T07:13:37.100Z,6.13
2022-12-15T07:16:12.781Z,7.32
2022-12-15T07:18:46.246Z,6.38
2022-12-15T07:21:19.643Z,6.95
2022-12-15T07:23:56.042Z,5.53
2022-12-15T07:26:30.390Z,6.35
2022-12-15T07:29:03.218Z,8.98
2022-12-15T07:31:37.547Z,7.38
2022-12-15T07:34:10.738Z,6.07
2022-12-15T07:36:48.481Z,8.27
2022-12-15T07:39:27.489Z,7.87
2022-12-15T07:42:01.321Z,6.93
2022-12-15T07:44:34.400Z,6.60
2022-12-15T07:47:08.638Z,8.63
2022-12-15T07:49:41.785Z,7.57
2022-12-15T07:52:14.883Z,7.45
2022-12-15T07:54:48.265Z,5.68
2022-12-15T07:57:21.243Z,7.45
2022-12-15T07:59:54.406Z,7.65
2022-12-15T08:02:28.991Z,9.02
2022-12-15T08:05:03.581Z,7.95
2022-12-15T08:07:36.953Z,7.40
2022-12-15T08:10:10.853Z,6.32
2022-12-15T08:12:43.654Z,8.77
2022-12-15T08:15:16.689Z,11.98
2022-12-15T08:17:56.124Z,7.68
2022-12-15T08:20:30.473Z,6.82
2022-12-15T08:23:04.057Z,8.32
2022-12-15T08:25:37.480Z,7.72
2022-12-15T08:28:12.824Z,7.18
2022-12-15T08:30:45.888Z,6.50
2022-12-15T08:33:20.625Z,10.48
2022-12-15T08:35:57.337Z,8.77
2022-12-15T08:38:31.150Z,7.88
2022-12-15T08:41:09.112Z,7.85
2022-12-15T08:43:48.100Z,10.18
2022-12-15T08:46:27.398Z,6.63
2022-12-15T08:49:03.498Z,6.72
2022-12-15T08:51:36.626Z,7.65
2022-12-15T08:54:10.552Z,8.77
2022-12-15T08:56:43.984Z,9.65
2022-12-15T08:59:17.122Z,9.77
2022-12-15T09:01:50.255Z,8.93
2022-12-15T09:04:24.959Z,11.40
2022-12-15T09:06:58.597Z,11.98
2022-12-15T09:09:31.527Z,11.13
2022-12-15T09:12:04.683Z,12.60
2022-12-15T09:14:37.851Z,10.48
2022-12-15T09:17:10.866Z,12.85
2022-12-15T09:19:45.530Z,12.85
2022-12-15T09:22:19.790Z,12.25
2022-12-15T09:24:52.644Z,14.57
2022-12-15T09:27:25.665Z,10.82
2022-12-15T09:29:59.192Z,13.20
2022-12-15T09:32:32.292Z,12.27
2022-12-15T09:35:07.885Z,12.73
2022-12-15T09:37:40.842Z,11.35
2022-12-15T09:40:15.118Z,13.75
2022-12-15T09:43:05.022Z,13.52
2022-12-15T09:45:53.320Z,13.25
2022-12-15T09:48:34.746Z,13.13
2022-12-15T09:51:16.040Z,11.63
2022-12-15T09:53:56.861Z,12.20
2022-12-15T09:56:40.919Z,12.20
2022-12-15T09:59:30.623Z,12.13
2022-12-15T10:02:30.586Z,12.77
2022-12-15T10:05:14.358Z,11.32
2022-12-15T10:07:50.336Z,13.80
2022-12-15T10:10:32.605Z,11.40
2022-12-15T10:15:51.992Z,11.23
2022-12-15T10:18:31.114Z,15.75
2022-12-15T10:21:04.135Z,15.27
2022-12-15T10:23:39.133Z,15.35
2022-12-15T10:26:21.212Z,15.30
2022-12-15T10:29:17.927Z,17.10
2022-12-15T10:31:54.920Z,14.25
2022-12-15T10:34:30.212Z,20.05
2022-12-15T10:37:04.216Z,14.98
2022-12-15T10:39:40.678Z,16.75
2022-12-15T10:42:23.388Z,15.85
2022-12-15T10:44:57.842Z,14.27
2022-12-15T10:47:36.532Z,15.68
2022-12-15T10:50:24.300Z,19.05
2022-12-15T10:52:58.172Z,15.60
2022-12-15T10:55:40.141Z,13.98
2022-12-15T10:58:19.107Z,15.38
2022-12-15T11:01:08.968Z,14.82
2022-12-15T11:03:42.383Z,14.98
2022-12-15T11:06:20.807Z,14.27
2022-12-15T11:08:57.333Z,14.30
2022-12-15T11:11:52.203Z,14.27
2022-12-15T11:14:29.709Z,13.93
2022-12-15T11:17:02.956Z,15.85
2022-12-15T11:19:43.659Z,14.23
2022-12-15T11:22:25.901Z,17.73
2022-12-15T11:25:06.784Z,13.80
2022-12-15T11:27:44.801Z,14.82
2022-12-15T11:30:20.571Z,14.82
2022-12-15T11:32:56.609Z,16.33
2022-12-15T11:35:34.648Z,17.33
2022-12-15T11:38:18.855Z,15.10
2022-12-15T11:40:52.668Z,15.73
2022-12-15T11:43:51.350Z,15.23
2022-12-15T11:46:27.808Z,15.40
2022-12-15T11:49:29.742Z,14.25
2022-12-15T11:52:09.005Z,14.95
2022-12-15T11:54:48.741Z,14.65
2022-12-15T11:57:44.828Z,14.07
2022-12-15T12:00:21.624Z,15.60
2022-12-15T12:03:06.903Z,13.60
2022-12-15T12:06:00.847Z,14.68
2022-12-15T12:08:51.149Z,15.43
2022-12-15T12:11:29.119Z,14.00
2022-12-15T12:14:20.437Z,15.52
2022-12-15T12:17:03.877Z,15.98
2022-12-15T12:19:42.693Z,14.27
2022-12-15T12:22:24.505Z,17.15
2022-12-15T12:25:00.931Z,16.63
2022-12-15T12:27:42.175Z,16.48
2022-12-15T12:30:17.383Z,17.45
2022-12-15T12:32:59.740Z,15.80
2022-12-15T12:35:41.009Z,15.85
2022-12-15T12:38:14.728Z,15.35
2022-12-15T12:40:58.886Z,16.90
2022-12-15T12:43:35.153Z,15.95
2022-12-15T12:46:16.182Z,17.90
2022-12-15T12:48:56.282Z,17.10
2022-12-15T12:51:32.156Z,18.80
2022-12-15T12:54:39.877Z,18.58
2022-12-15T12:57:31.864Z,16.10
2022-12-15T13:03:11.402Z,16.75
2022-12-15T13:05:50.578Z,17.23
2022-12-15T13:08:45.942Z,17.65
2022-12-15T13:11:57.698Z,15.57
2022-12-15T13:14:42.093Z,16.80
2022-12-15T13:17:27.888Z,17.90
2022-12-15T13:20:19.070Z,18.50
2022-12-15T13:22:54.740Z,16.27
2022-12-15T13:25:42.997Z,18.15
2022-12-15T13:28:32.442Z,16.95
2022-12-15T13:31:28.806Z,15.32
2022-12-15T13:34:23.751Z,16.23
2022-12-15T13:37:01.879Z,18.65
2022-12-15T13:39:56.131Z,16.48
2022-12-15T13:42:51.279Z,15.73
2022-12-15T13:45:36.878Z,15.88
2022-12-15T13:48:31.590Z,15.73
2022-12-15T13:51:30.087Z,15.82
2022-12-15T13:54:06.137Z,14.82
2022-12-15T13:56:50.805Z,13.10
2022-12-15T13:59:44.066Z,15.90
2022-12-15T14:02:26.668Z,17.98
2022-12-15T14:05:16.178Z,16.17
2022-12-15T14:10:49.004Z,18.75
2022-12-15T14:13:31.029Z,18.42
2022-12-15T14:16:16.526Z,17.50
2022-12-15T14:19:05.589Z,20.52
2022-12-15T14:21:38.383Z,18.88
2022-12-15T14:24:38.535Z,19.08
2022-12-15T14:27:24.236Z,16.73
2022-12-15T14:30:22.925Z,17.65
2022-12-15T14:33:00.183Z,18.60
2022-12-15T14:35:37.603Z,17.98
2022-12-15T14:38:17.078Z,19.77
2022-12-15T14:40:52.113Z,16.95
2022-12-15T14:43:30.166Z,19.00
2022-12-15T14:46:17.044Z,20.05
2022-12-15T14:48:55.444Z,18.77
2022-12-15T14:51:32.699Z,23.20
2022-12-15T14:54:06.013Z,18.77
2022-12-15T14:56:39.594Z,21.33
2022-12-15T14:59:21.482Z,19.85
2022-12-15T15:04:34.385Z,20.05
2022-12-15T15:07:16.157Z,26.10
2022-12-15T15:09:49.449Z,22.90
2022-12-15T15:12:24.351Z,22.90
2022-12-15T15:15:04.343Z,24.42
2022-12-15T15:17:43.967Z,23.52
2022-12-15T15:20:23.085Z,22.80
2022-12-15T15:23:14.854Z,23.85
2022-12-15T15:25:52.520Z,21.40
2022-12-15T15:28:28.189Z,23.08
2022-12-15T15:31:06.372Z,22.35
2022-12-15T15:33:40.635Z,24.65
2022-12-15T15:36:14.027Z,26.73
2022-12-15T15:38:48.134Z,24.02
2022-12-15T15:41:28.862Z,25.80
2022-12-15T15:44:03.494Z,28.25
2022-12-15T15:46:39.914Z,26.23
2022-12-15T15:49:18.264Z,23.50
2022-12-15T15:51:51.447Z,29.92
2022-12-15T15:54:31.252Z,25.52
2022-12-15T15:57:04.443Z,27.55
2022-12-15T15:59:42.177Z,27.27
2022-12-15T16:02:15.918Z,32.13
2022-12-15T16:04:50.703Z,30.08
2022-12-15T16:07:26.165Z,27.80
2022-12-15T16:09:59.191Z,28.15
2022-12-15T16:12:37.056Z,28.25
2022-12-15T16:15:15.610Z,29.23
2022-12-15T16:17:49.038Z,29.83
2022-12-15T16:20:26.981Z,31.55
2022-12-15T16:23:02.710Z,32.83
2022-12-15T16:25:48.403Z,29.88
2022-12-15T16:28:26.307Z,32.30
2022-12-15T16:31:01.694Z,36.55
2022-12-15T16:33:34.832Z,32.28
2022-12-15T16:36:14.084Z,32.83
2022-12-15T16:38:47.374Z,33.47
2022-12-15T16:41:23.277Z,35.72
2022-12-15T16:43:56.193Z,33.05
2022-12-15T16:46:29.375Z,34.17
2022-12-15T16:49:02.320Z,36.03
2022-12-15T16:51:40.024Z,34.97
2022-12-15T16:54:19.090Z,32.63
2022-12-15T16:56:53.454Z,31.02
2022-12-15T16:59:36.177Z,29.77
2022-12-15T17:02:24.734Z,31.25
2022-12-15T17:04:59.020Z,32.75
2022-12-15T17:07:33.235Z,31.63
2022-12-15T17:10:07.135Z,31.90
2022-12-15T17:12:40.050Z,33.60
2022-12-15T17:15:24.905Z,34.03
2022-12-15T17:17:58.187Z,36.03
2022-12-15T17:20:31.669Z,32.05
2022-12-15T17:23:10.858Z,32.00
2022-12-15T17:26:19.530Z,40.38
2022-12-15T17:28:40.669Z,30.70
2022-12-15T17:31:19.275Z,34.53
2022-12-15T17:33:52.870Z,37.35
2022-12-15T17:36:29.096Z,34.55
2022-12-15T17:39:03.538Z,33.97
2022-12-15T17:42:08.051Z,37.72
2022-12-15T17:44:35.627Z,41.38
2022-12-15T17:47:10.330Z,35.50
2022-12-15T17:49:43.490Z,42.20
2022-12-15T17:52:25.565Z,38.58
2022-12-15T17:55:00.064Z,37.60
2022-12-15T17:57:32.941Z,35.97
2022-12-15T18:00:17.239Z,36.00
2022-12-15T18:02:50.440Z,37.60
2022-12-15T18:08:35.207Z,40.20
2022-12-15T18:11:25.934Z,34.38
2022-12-15T18:13:59.044Z,35.38
2022-12-15T18:16:34.530Z,34.00
2022-12-15T18:19:07.655Z,33.92
2022-12-15T18:21:40.644Z,36.67
2022-12-15T18:24:14.367Z,31.30
2022-12-15T18:26:48.807Z,37.65
2022-12-15T18:29:22.164Z,38.85
2022-12-15T18:31:55.026Z,37.33
2022-12-15T18:34:28.244Z,36.72
2022-12-15T18:37:01.105Z,43.70
2022-12-15T18:39:34.264Z,43.15
2022-12-15T18:42:13.566Z,40.97
2022-12-15T18:44:49.396Z,40.75
2022-12-15T18:47:25.032Z,37.05
2022-12-15T18:49:58.389Z,41.85
2022-12-15T18:52:34.660Z,44.05
2022-12-15T18:55:21.095Z,41.45
2022-12-15T18:57:55.720Z,37.00
2022-12-15T19:00:32.593Z,35.85
2022-12-15T19:03:06.140Z,39.33
2022-12-15T19:05:39.880Z,37.17
2022-12-15T19:08:15.520Z,39.47
2022-12-15T19:10:52.093Z,33.65
2022-12-15T19:13:31.465Z,33.00
2022-12-15T19:16:07.245Z,32.85
2022-12-15T19:18:57.617Z,29.67
2022-12-15T19:21:49.734Z,31.85
2022-12-15T19:24:46.242Z,29.38
2022-12-15T19:27:23.195Z,29.23
2022-12-15T19:29:57.924Z,29.98
2022-12-15T19:32:30.967Z,31.25
2022-12-15T19:35:04.428Z,29.60
2022-12-15T19:37:39.672Z,32.53
2022-12-15T19:40:22.259Z,27.73
2022-12-15T19:42:55.514Z,27.65
2022-12-15T19:45:31.748Z,26.05
2022-12-15T19:48:04.820Z,28.90
2022-12-15T19:50:38.898Z,26.63
2022-12-15T19:53:17.451Z,26.45
2022-12-15T19:55:50.316Z,28.00
2022-12-15T19:58:29.751Z,28.70
2022-12-15T20:01:07.214Z,24.67
2022-12-15T20:03:40.619Z,27.42
2022-12-15T20:06:17.426Z,27.10
2022-12-15T20:08:52.292Z,23.10
2022-12-15T20:11:30.082Z,22.42
2022-12-15T20:14:05.275Z,30.60
2022-12-15T20:16:39.631Z,21.40
2022-12-15T20:19:12.640Z,23.10
2022-12-15T20:21:45.634Z,23.42
2022-12-15T20:24:20.478Z,21.40
2022-12-15T20:26:53.384Z,23.27
2022-12-15T20:29:29.743Z,21.92
2022-12-15T20:32:04.117Z,22.38
2022-12-15T20:34:37.190Z,20.17
2022-12-15T20:37:18.915Z,21.27
2022-12-15T20:39:57.175Z,21.95
2022-12-15T20:42:30.633Z,21.45
2022-12-15T20:45:04.197Z,22.35
2022-12-15T20:47:42.388Z,21.45
2022-12-15T20:50:28.001Z,20.73
2022-12-15T20:53:01.097Z,20.27
2022-12-15T20:55:34.490Z,18.50
2022-12-15T20:58:07.355Z,18.83
2022-12-15T21:00:40.816Z,21.08
2022-12-15T21:03:25.075Z,19.80
2022-12-15T21:05:59.339Z,22.40
2022-12-15T21:08:33.220Z,20.73
2022-12-15T21:11:15.303Z,25.67
2022-12-15T21:13:50.427Z,18.73
2022-12-15T21:16:26.079Z,23.60
2022-12-15T21:21:56.018Z,23.02
2022-12-15T21:24:29.857Z,19.85
2022-12-15T21:27:04.139Z,22.88
2022-12-15T21:29:37.326Z,24.50
2022-12-15T21:32:10.710Z,22.83
2022-12-15T21:34:45.933Z,24.60
2022-12-15T21:37:25.001Z,23.40
2022-12-15T21:39:59.454Z,22.58
2022-12-15T21:42:36.353Z,20.63
2022-12-15T21:45:15.188Z,23.95
2022-12-15T21:48:06.413Z,22.23
2022-12-15T21:50:43.423Z,21.08
2022-12-15T21:53:17.680Z,19.40
2022-12-15T21:55:50.912Z,22.83
2022-12-15T21:58:25.067Z,23.00
2022-12-15T22:00:58.002Z,20.92
2022-12-15T22:03:30.959Z,22.63
2022-12-15T22:06:05.520Z,20.88
2022-12-15T22:08:38.367Z,20.15
2022-12-15T22:11:20.078Z,19.38
2022-12-15T22:13:55.199Z,23.35
2022-12-15T22:16:28.605Z,22.90
2022-12-15T22:19:02.140Z,20.92
2022-12-15T22:21:36.260Z,24.05
2022-12-15T22:24:09.970Z,23.10
2022-12-15T22:26:43.256Z,25.83
2022-12-15T22:29:18.683Z,21.67
2022-12-15T22:31:52.104Z,24.75
2022-12-15T22:34:27.855Z,25.13
2022-12-15T22:37:02.073Z,25.08
2022-12-15T22:39:35.069Z,23.02
2022-12-15T22:42:09.146Z,26.27
2022-12-15T22:44:42.038Z,23.80
2022-12-15T22:47:15.177Z,24.95
2022-12-15T22:49:47.964Z,24.20
2022-12-15T22:52:22.574Z,26.33
2022-12-15T22:54:56.995Z,26.23
2022-12-15T22:57:30.432Z,26.05
2022-12-15T23:00:07.741Z,24.42
2022-12-15T23:02:44.066Z,26.38
2022-12-15T23:05:19.803Z,25.88
2022-12-15T23:07:54.561Z,23.92
2022-12-15T23:10:45.405Z,23.75
2022-12-15T23:13:18.374Z,22.33
2022-12-15T23:16:09.217Z,21.50
2022-12-15T23:18:42.099Z,24.98
2022-12-15T23:21:14.976Z,24.95
2022-12-15T23:23:49.300Z,25.25
2022-12-15T23:26:25.959Z,26.13
2022-12-15T23:28:58.931Z,22.55
2022-12-15T23:31:32.041Z,22.63
2022-12-15T23:34:04.892Z,23.70
2022-12-15T23:36:37.810Z,23.50
2022-12-15T23:39:12.092Z,22.50
2022-12-15T23:41:45.063Z,21.73
2022-12-15T23:44:17.973Z,25.90
2022-12-15T23:46:50.953Z,26.05
2022-12-15T23:49:23.797Z,25.58
2022-12-15T23:51:56.987Z,26.92
2022-12-15T23:54:33.452Z,23.23
2022-12-15T23:57:06.283Z,24.17
2022-12-15T23:59:39.097Z,22.52
